Flight Track Log - Related Links

Times and Time Zones

All times are in EDT time to prevent confusion due to time zone crossing. See the N320B flight status page for this flight to view local times or setup timezone preferences in your user account.

Time Position Orientation Groundspeed Altitude Reporting Facility
EDT Latitude Longitude Course Direction KTS MPH feet Rate Location/Type
Thu 08:03:00 PM 43.0906 -84.1678 345° North  Level Estimated
Thu 08:04:00 PM 43.1269 -84.1819 344° North  Level Estimated
Thu 08:05:00 PM 43.1632 -84.1959 344° North  Level Estimated
Thu 08:06:00 PM 43.1995 -84.2100 344° North  Level Estimated
Thu 08:07:00 PM 43.2356 -84.2240 344° North  Level Estimated
Thu 08:08:00 PM 43.2718 -84.2381 344° North  Level Estimated
Thu 08:09:00 PM 43.3079 -84.2522 344° North  Level Estimated
Thu 08:10:00 PM 43.3441 -84.2663 344° North  Level Estimated
Thu 08:11:00 PM 43.3802 -84.2804 344° North  Level Estimated
Thu 08:12:00 PM 43.4164 -84.2945 344° North  Level Estimated
Thu 08:13:00 PM 43.4525 -84.3086 344° North  Level Estimated
Thu 08:14:00 PM 43.4887 -84.3228 344° North  Level Estimated
Thu 08:15:00 PM 43.5248 -84.3370 344° North  Level Estimated
Thu 08:15:38 PM 43.6581 -84.4492 344° North 151 174 6,500  Level Minneapolis Center
Thu 08:16:00 PM 43.5610 -84.3512 344° North  Level Estimated
Thu 08:16:40 PM 43.7003 -84.4597 350° North 153 176 6,500  Level Minneapolis Center
Thu 08:17:00 PM 43.5971 -84.3654 344° North  Level Estimated
Thu 08:17:42 PM 43.7425 -84.4708 349° North 154 177 6,500  Level Minneapolis Center
Thu 08:18:00 PM 43.6332 -84.3796 344° North  Level Estimated
Thu 08:18:44 PM 43.7928 -84.4844 349° North 154 177 6,500  Level Minneapolis Center
Thu 08:19:00 PM 43.6694 -84.3938 344° North  Level Estimated
Thu 08:19:47 PM 43.8350 -84.4950 350° North 155 178 6,500  Level Minneapolis Center
Thu 08:20:00 PM 43.7055 -84.4081 344° North  Level Estimated
Thu 08:20:49 PM 43.8769 -84.5061 349° North 154 177 6,500  Level Minneapolis Center
Thu 08:21:00 PM 43.7416 -84.4224 344° North  Level Estimated
Thu 08:22:00 PM 43.9196 -84.5347 334° Northwest  Level FlightAware Approximate
Thu 08:29:00 PM 44.1883 -84.6346 350° North  Level FlightAware Approximate
Thu 08:30:00 PM 44.2278 -84.6444 350° North  Level FlightAware Approximate
Thu 08:31:00 PM 44.2673 -84.6535 352° North  Level FlightAware Approximate
Thu 08:32:00 PM 44.3069 -84.6614 352° North  Level FlightAware Approximate
Thu 08:33:00 PM 44.3467 -84.6667 North  Level FlightAware Approximate
Thu 08:34:00 PM 44.3500 -84.6667 North  Level FlightAware Approximate
Thu 08:35:00 PM 44.3599 -84.6695 North  Level Estimated
Thu 08:36:00 PM 44.3599 -84.6695 North  Level Estimated
Thu 08:37:00 PM 44.3599 -84.6695 North  Level Estimated
Thu 08:38:00 PM 44.3599 -84.6695 North  Level Estimated
Thu 08:39:00 PM 44.3599 -84.6695 North  Level Estimated
Thu 08:40:00 PM 44.3599 -84.6695 North  Level Estimated

Login

Don't have an account? Register now (free) for customized features, flight alerts, and more!